Time;durP1;ratioP1;P1;durP2;ratioP2;P2;SDS_P1;SDS_P2;PMS_P1;PMS_P2;Temp;Humidity;BMP_temperature;BMP_pressure;BME280_temperature;BME280_humidity;BME280_pressure;Samples;Min_cycle;Max_cycle;Signal;HPM_P1;HPM_P2
2022/08/16 00:00:14;;;;;;;4.17;3.33;;;22.30;99.90;;;;;;5056521;28;20459;-79
2022/08/16 00:02:40;;;;;;;8.00;3.47;;;22.20;99.90;;;;;;5054987;28;20480;-80
2022/08/16 00:05:09;;;;;;;4.47;3.63;;;22.20;99.90;;;;;;5054828;28;20488;-80
2022/08/16 00:07:37;;;;;;;3.97;3.57;;;22.20;99.90;;;;;;5055366;28;20475;-79
2022/08/16 00:10:07;;;;;;;4.23;3.50;;;22.10;99.90;;;;;;5055247;28;20448;-80
2022/08/16 00:12:34;;;;;;;7.53;4.20;;;22.10;99.90;;;;;;5055551;28;20567;-79
2022/08/16 00:15:07;;;;;;;4.83;3.43;;;22.10;99.90;;;;;;5053644;28;20543;-80
2022/08/16 00:17:34;;;;;;;5.60;3.60;;;22.00;99.90;;;;;;5054807;28;20487;-79
2022/08/16 00:20:01;;;;;;;4.00;3.57;;;22.00;99.90;;;;;;5055226;28;20534;-81
2022/08/16 00:22:28;;;;;;;4.40;3.57;;;22.00;99.90;;;;;;5054840;28;20547;-83
2022/08/16 00:24:55;;;;;;;4.60;3.50;;;21.90;99.90;;;;;;5055183;28;20511;-79
2022/08/16 00:27:23;;;;;;;6.07;3.53;;;21.90;99.90;;;;;;5058084;28;20530;-86
2022/08/16 00:29:51;;;;;;;4.20;3.37;;;21.90;99.90;;;;;;5036941;28;20487;-83
2022/08/16 00:32:18;;;;;;;4.70;3.83;;;21.80;99.90;;;;;;5037260;28;20479;-83
2022/08/16 00:34:45;;;;;;;6.07;4.47;;;21.80;99.90;;;;;;5056160;28;20458;-81
2022/08/16 00:37:12;;;;;;;4.40;3.80;;;21.80;99.90;;;;;;5056628;28;20534;-82
2022/08/16 00:39:39;;;;;;;5.10;3.40;;;21.80;99.90;;;;;;5058585;28;20462;-82
2022/08/16 00:42:06;;;;;;;6.87;3.87;;;21.80;99.90;;;;;;5060030;28;20539;-82
2022/08/16 00:44:37;;;;;;;4.63;3.87;;;21.70;99.90;;;;;;5060359;28;20534;-82
2022/08/16 00:47:09;;;;;;;3.97;3.20;;;21.80;99.90;;;;;;5061441;28;20522;-82
2022/08/16 00:49:36;;;;;;;4.93;3.37;;;21.80;99.90;;;;;;5062920;28;20507;-80
2022/08/16 00:52:04;;;;;;;4.80;3.50;;;21.70;99.90;;;;;;5061139;28;20471;-80
2022/08/16 00:54:31;;;;;;;5.30;3.47;;;21.70;99.90;;;;;;5061018;28;20458;-82
2022/08/16 00:57:01;;;;;;;4.07;3.00;;;21.70;99.90;;;;;;5061185;28;20534;-82
2022/08/16 00:59:30;;;;;;;5.03;3.57;;;21.70;99.90;;;;;;5061438;28;20455;-83
2022/08/16 01:02:00;;;;;;;7.00;3.77;;;21.70;99.90;;;;;;5061510;28;21015;-82
2022/08/16 01:04:28;;;;;;;5.10;3.43;;;21.70;99.90;;;;;;5061166;28;20456;-80
2022/08/16 01:06:55;;;;;;;5.50;4.00;;;21.70;99.90;;;;;;5062460;28;20502;-81
2022/08/16 01:09:23;;;;;;;4.40;3.53;;;21.70;99.90;;;;;;5062155;28;20992;-80
2022/08/16 01:11:50;;;;;;;4.97;3.33;;;21.80;99.90;;;;;;5062646;28;20495;-82
2022/08/16 01:14:24;;;;;;;3.83;3.40;;;21.70;99.90;;;;;;5081844;22;20634;-78
2022/08/16 01:16:52;;;;;;;4.90;3.63;;;21.70;99.90;;;;;;5054066;28;20464;-78
2022/08/16 01:19:24;;;;;;;3.93;3.33;;;21.80;99.90;;;;;;5056016;28;20542;-80
2022/08/16 01:21:56;;;;;;;5.20;3.90;;;21.80;99.90;;;;;;5057439;28;20543;-80
2022/08/16 01:24:29;;;;;;;8.17;4.47;;;21.80;99.90;;;;;;5056363;28;20525;-79
2022/08/16 01:27:01;;;;;;;5.40;3.80;;;21.70;99.90;;;;;;5057200;28;20478;-81
2022/08/16 01:29:33;;;;;;;6.03;3.80;;;21.80;99.90;;;;;;5057001;28;20444;-80
2022/08/16 01:32:00;;;;;;;6.00;3.97;;;21.80;99.90;;;;;;5056851;28;20546;-80
2022/08/16 01:34:27;;;;;;;5.50;3.83;;;21.90;99.90;;;;;;5055995;28;20566;-79
2022/08/16 01:37:01;;;;;;;7.33;4.10;;;22.00;99.90;;;;;;5056791;28;20527;-79
2022/08/16 01:39:29;;;;;;;6.97;3.73;;;21.90;99.90;;;;;;5057482;28;20452;-80
2022/08/16 01:41:56;;;;;;;8.70;4.07;;;22.00;99.90;;;;;;5055777;28;20551;-80
2022/08/16 01:44:23;;;;;;;5.30;4.03;;;22.00;99.90;;;;;;5055774;28;20463;-80
2022/08/16 01:46:52;;;;;;;4.80;4.03;;;22.00;99.90;;;;;;5057478;28;20582;-80
2022/08/16 01:49:21;;;;;;;5.07;3.90;;;22.00;99.90;;;;;;5056987;28;20884;-79
2022/08/16 01:51:53;;;;;;;5.30;4.17;;;22.00;99.90;;;;;;5055722;28;20470;-79
2022/08/16 01:54:21;;;;;;;4.57;3.57;;;21.90;99.90;;;;;;5055013;28;20464;-80
2022/08/16 01:56:49;;;;;;;4.70;3.80;;;22.00;99.90;;;;;;5056304;28;20528;-79
2022/08/16 01:59:17;;;;;;;4.90;4.17;;;21.90;99.90;;;;;;5053034;28;20848;-80
2022/08/16 02:01:44;;;;;;;4.80;4.17;;;21.90;99.90;;;;;;5056173;28;20480;-80
2022/08/16 02:04:11;;;;;;;4.13;3.50;;;22.00;99.90;;;;;;5056105;28;20520;-80
2022/08/16 02:06:40;;;;;;;5.27;3.90;;;22.00;99.90;;;;;;5055863;28;20567;-80
2022/08/16 02:09:08;;;;;;;4.43;3.40;;;22.00;99.90;;;;;;5056340;28;20455;-81
2022/08/16 02:11:36;;;;;;;5.30;3.37;;;22.00;99.90;;;;;;5056117;28;20459;-80
2022/08/16 02:14:05;;;;;;;4.40;3.13;;;22.00;99.90;;;;;;5055744;28;20537;-79
2022/08/16 02:16:32;;;;;;;5.73;3.87;;;21.90;99.90;;;;;;5057399;28;20448;-82
2022/08/16 02:18:59;;;;;;;5.67;4.63;;;22.00;99.90;;;;;;5072320;28;20428;-82
2022/08/16 02:21:27;;;;;;;5.70;3.80;;;21.80;99.90;;;;;;5064998;28;20896;-80
2022/08/16 02:23:54;;;;;;;5.83;4.10;;;21.90;99.90;;;;;;5054879;28;20459;-79
2022/08/16 02:26:20;;;;;;;4.83;3.97;;;22.00;99.90;;;;;;5055463;28;20574;-80
2022/08/16 02:28:47;;;;;;;5.23;3.70;;;22.00;99.90;;;;;;5055687;28;20522;-79
2022/08/16 02:31:16;;;;;;;7.20;4.00;;;22.00;99.90;;;;;;5054915;28;20543;-79
2022/08/16 02:33:44;;;;;;;5.20;3.77;;;21.90;99.90;;;;;;5054305;28;20524;-79
2022/08/16 02:36:12;;;;;;;4.40;3.80;;;22.00;99.90;;;;;;5055193;28;20555;-80
2022/08/16 02:38:39;;;;;;;5.37;3.93;;;21.90;99.90;;;;;;5055594;28;20948;-80
2022/08/16 02:41:07;;;;;;;4.80;4.10;;;21.80;99.90;;;;;;5072722;28;20935;-80
2022/08/16 02:43:35;;;;;;;5.67;4.60;;;21.90;99.90;;;;;;5055910;28;20472;-81
2022/08/16 02:46:03;;;;;;;5.90;4.13;;;21.90;99.90;;;;;;5055188;28;20488;-80
2022/08/16 02:48:31;;;;;;;4.40;3.53;;;21.90;99.90;;;;;;5036445;28;20456;-80
2022/08/16 02:50:59;;;;;;;5.27;3.40;;;21.90;99.90;;;;;;5035261;28;20903;-80
2022/08/16 02:53:26;;;;;;;5.50;3.50;;;22.00;99.90;;;;;;5053840;28;20555;-79
2022/08/16 02:55:54;;;;;;;4.73;3.10;;;21.80;99.90;;;;;;5056275;28;20543;-80
2022/08/16 02:58:22;;;;;;;4.20;3.60;;;21.80;99.90;;;;;;5055129;28;20544;-80
2022/08/16 03:00:49;;;;;;;8.83;4.20;;;21.90;99.90;;;;;;5053323;28;20468;-80
2022/08/16 03:03:15;;;;;;;5.00;4.27;;;21.80;99.90;;;;;;5054922;28;20455;-79
2022/08/16 03:05:46;;;;;;;4.70;3.90;;;21.70;99.90;;;;;;5054804;28;20570;-79
2022/08/16 03:08:13;;;;;;;4.47;3.30;;;21.70;99.90;;;;;;5054646;28;20809;-79
2022/08/16 03:10:40;;;;;;;7.17;3.80;;;21.70;99.90;;;;;;5055452;28;20498;-79
2022/08/16 03:13:07;;;;;;;3.70;3.23;;;21.60;99.90;;;;;;5052976;28;20448;-79
2022/08/16 03:15:34;;;;;;;4.77;4.27;;;21.60;99.90;;;;;;5053009;28;20579;-79
2022/08/16 03:18:01;;;;;;;5.70;3.37;;;21.60;99.90;;;;;;5053528;28;20456;-78
2022/08/16 03:20:28;;;;;;;5.97;3.73;;;21.60;99.90;;;;;;5053413;28;20877;-78
2022/08/16 03:22:57;;;;;;;5.70;3.77;;;21.50;99.90;;;;;;5052536;28;20838;-79
2022/08/16 03:25:23;;;;;;;5.47;3.70;;;21.50;99.90;;;;;;5053147;28;20519;-79
2022/08/16 03:27:51;;;;;;;5.10;3.90;;;21.50;99.90;;;;;;5053432;28;20432;-78
2022/08/16 03:30:23;;;;;;;5.53;4.33;;;21.40;99.90;;;;;;5054259;28;20536;-79
2022/08/16 03:32:49;;;;;;;5.17;3.67;;;21.30;99.90;;;;;;5053301;28;20452;-79
2022/08/16 03:35:17;;;;;;;4.53;4.10;;;21.30;99.90;;;;;;5053668;28;20558;-80
2022/08/16 03:37:44;;;;;;;6.40;4.13;;;21.20;99.90;;;;;;5054363;28;20444;-80
2022/08/16 03:40:14;;;;;;;4.60;3.50;;;21.20;99.90;;;;;;5054047;28;20539;-80
2022/08/16 03:42:42;;;;;;;4.23;3.83;;;21.20;99.90;;;;;;5054416;28;20454;-80
2022/08/16 03:45:09;;;;;;;4.87;3.70;;;21.10;99.90;;;;;;5053158;28;20490;-79
2022/08/16 03:47:37;;;;;;;6.80;3.93;;;21.10;99.90;;;;;;5054521;28;20928;-78
2022/08/16 03:50:05;;;;;;;4.40;3.97;;;21.10;99.90;;;;;;5053659;28;20960;-79
2022/08/16 03:52:34;;;;;;;5.30;3.63;;;21.00;99.90;;;;;;5054308;28;20454;-81
2022/08/16 03:55:01;;;;;;;4.47;3.70;;;21.00;99.90;;;;;;5053203;28;20533;-79
2022/08/16 03:57:31;;;;;;;6.60;3.87;;;21.00;99.90;;;;;;5054398;28;20444;-80
2022/08/16 03:59:59;;;;;;;7.97;3.70;;;20.90;99.90;;;;;;5054422;28;20551;-79
2022/08/16 04:02:27;;;;;;;5.83;4.03;;;20.90;99.90;;;;;;5054281;28;20559;-79
2022/08/16 04:04:53;;;;;;;4.33;3.73;;;20.90;99.90;;;;;;5048022;28;20523;-80
2022/08/16 04:07:21;;;;;;;4.73;3.70;;;20.80;99.90;;;;;;5048033;28;20492;-79
2022/08/16 04:09:47;;;;;;;6.33;4.30;;;20.80;99.90;;;;;;5043777;28;20459;-78
2022/08/16 04:12:14;;;;;;;5.50;3.97;;;20.90;99.90;;;;;;5052875;28;20456;-79
2022/08/16 04:14:43;;;;;;;4.60;3.90;;;20.80;99.90;;;;;;5057959;28;20492;-80
2022/08/16 04:17:09;;;;;;;6.43;4.60;;;20.80;99.90;;;;;;5068076;28;20508;-80
2022/08/16 04:19:36;;;;;;;5.93;4.93;;;20.80;99.90;;;;;;5077066;28;20455;-79
2022/08/16 04:22:03;;;;;;;6.40;4.60;;;20.70;99.90;;;;;;5059537;28;20894;-79
2022/08/16 04:24:30;;;;;;;7.17;4.80;;;20.70;99.90;;;;;;5059399;28;21019;-79
2022/08/16 04:26:57;;;;;;;5.20;3.73;;;20.70;99.90;;;;;;5060346;28;20968;-79
2022/08/16 04:29:24;;;;;;;5.23;4.00;;;20.70;99.90;;;;;;5059137;28;20451;-78
2022/08/16 04:31:53;;;;;;;5.43;4.10;;;20.60;99.90;;;;;;5061860;28;20998;-79
2022/08/16 04:34:20;;;;;;;6.10;3.97;;;20.70;99.90;;;;;;5059366;28;20929;-79
2022/08/16 04:36:47;;;;;;;6.17;4.20;;;20.70;99.90;;;;;;5060884;28;20521;-81
2022/08/16 04:39:15;;;;;;;6.63;3.97;;;20.70;99.90;;;;;;5060619;28;20454;-81
2022/08/16 04:41:42;;;;;;;5.50;4.10;;;20.70;99.90;;;;;;5060448;28;20895;-80
2022/08/16 04:44:09;;;;;;;4.67;4.20;;;20.60;99.90;;;;;;5059600;28;20921;-80
2022/08/16 04:46:36;;;;;;;5.57;5.07;;;20.60;99.90;;;;;;5060425;28;20515;-81
2022/08/16 04:49:06;;;;;;;6.00;4.20;;;20.60;99.90;;;;;;5059970;28;20543;-80
2022/08/16 04:51:34;;;;;;;5.83;4.60;;;20.60;99.90;;;;;;5060416;28;20514;-78
2022/08/16 04:54:01;;;;;;;5.90;4.10;;;20.60;99.90;;;;;;5058989;28;20460;-80
2022/08/16 04:56:28;;;;;;;4.97;4.03;;;20.60;99.90;;;;;;5060576;28;21032;-80
2022/08/16 04:58:54;;;;;;;6.10;4.03;;;20.70;99.90;;;;;;5040669;28;20444;-81
2022/08/16 05:01:21;;;;;;;6.30;4.50;;;20.60;99.90;;;;;;5054784;28;20547;-81
2022/08/16 05:03:48;;;;;;;5.40;3.90;;;20.70;99.90;;;;;;5059720;28;20451;-80
2022/08/16 05:06:16;;;;;;;6.87;3.87;;;20.60;99.90;;;;;;5060135;28;20539;-81
2022/08/16 05:08:43;;;;;;;4.17;3.77;;;20.70;99.90;;;;;;5060424;28;20509;-80
2022/08/16 05:11:12;;;;;;;7.13;4.77;;;20.80;99.90;;;;;;5060207;28;20494;-80
2022/08/16 05:13:42;;;;;;;5.23;4.10;;;20.80;99.90;;;;;;5059044;28;20535;-81
2022/08/16 05:16:11;;;;;;;6.00;3.20;;;20.90;99.90;;;;;;5060456;28;20509;-80
2022/08/16 05:18:38;;;;;;;6.07;4.30;;;21.00;99.90;;;;;;5060181;28;20515;-80
2022/08/16 05:21:05;;;;;;;5.87;3.57;;;20.90;99.90;;;;;;5061406;28;20910;-82
2022/08/16 05:23:34;;;;;;;5.60;4.23;;;21.00;99.90;;;;;;5060103;28;20448;-80
2022/08/16 05:26:01;;;;;;;4.30;3.63;;;21.00;99.90;;;;;;5057791;28;20523;-80
2022/08/16 05:28:28;;;;;;;5.27;3.90;;;21.00;99.90;;;;;;5071421;28;20491;-82
2022/08/16 05:30:55;;;;;;;5.63;3.90;;;21.10;99.90;;;;;;5057837;28;20898;-81
2022/08/16 05:33:24;;;;;;;6.87;4.20;;;21.10;99.90;;;;;;5056781;28;20455;-81
2022/08/16 05:35:52;;;;;;;6.60;3.60;;;21.20;99.90;;;;;;5058528;28;20517;-81
2022/08/16 05:38:20;;;;;;;5.50;4.00;;;21.20;99.90;;;;;;5073535;28;20444;-80
2022/08/16 05:40:54;;;;;;;4.93;4.17;;;21.20;99.90;;;;;;5075902;28;20455;-81
2022/08/16 05:43:21;;;;;;;4.10;3.40;;;21.20;99.90;;;;;;5074350;28;20455;-82
2022/08/16 05:45:48;;;;;;;5.30;3.50;;;21.20;99.90;;;;;;5076175;28;20476;-81
2022/08/16 05:48:14;;;;;;;5.60;4.03;;;21.20;99.90;;;;;;5072792;28;20487;-82
2022/08/16 05:50:41;;;;;;;9.20;4.17;;;21.20;99.90;;;;;;5065950;28;20490;-82
2022/08/16 05:53:08;;;;;;;4.23;3.80;;;21.10;99.90;;;;;;5065886;28;20455;-80
2022/08/16 05:55:35;;;;;;;5.83;3.93;;;21.20;99.90;;;;;;5063880;28;20529;-79
2022/08/16 05:58:06;;;;;;;7.90;4.10;;;21.20;99.90;;;;;;5059596;28;20452;-78
2022/08/16 06:00:33;;;;;;;8.70;4.33;;;21.20;99.90;;;;;;5068954;28;20464;-80
2022/08/16 06:03:00;;;;;;;5.83;4.07;;;21.20;99.90;;;;;;5069302;28;20448;-79
2022/08/16 06:05:30;;;;;;;5.10;3.80;;;21.30;99.90;;;;;;5066293;28;20496;-80
2022/08/16 06:07:57;;;;;;;4.63;3.47;;;21.40;99.90;;;;;;5052227;28;20508;-80
2022/08/16 06:10:24;;;;;;;8.93;4.13;;;21.40;99.90;;;;;;5051232;28;20516;-80
2022/08/16 06:12:50;;;;;;;5.17;3.90;;;21.40;99.90;;;;;;5054011;28;20455;-80
2022/08/16 06:15:22;;;;;;;5.33;3.70;;;21.50;99.90;;;;;;5052035;28;20488;-81
2022/08/16 06:17:51;;;;;;;7.43;3.70;;;21.60;99.90;;;;;;5071594;28;20540;-79
2022/08/16 06:20:21;;;;;;;5.10;3.33;;;21.70;99.90;;;;;;5071184;28;20448;-80
2022/08/16 06:22:49;;;;;;;5.03;3.53;;;21.60;99.90;;;;;;5071570;28;20455;-78
2022/08/16 06:25:17;;;;;;;4.50;3.60;;;21.60;99.90;;;;;;5072182;28;20490;-80
2022/08/16 06:27:44;;;;;;;7.27;3.30;;;21.70;99.90;;;;;;5070967;28;20510;-80
2022/08/16 06:30:13;;;;;;;4.67;3.47;;;21.70;99.90;;;;;;5073773;28;20534;-80
2022/08/16 06:32:42;;;;;;;5.80;3.90;;;21.70;99.90;;;;;;5073688;28;20877;-80
2022/08/16 06:35:10;;;;;;;6.43;4.67;;;21.70;99.90;;;;;;5071858;28;20479;-80
2022/08/16 06:37:39;;;;;;;6.20;4.20;;;21.70;99.90;;;;;;5073929;28;20457;-80
2022/08/16 06:40:07;;;;;;;8.80;4.40;;;21.70;99.90;;;;;;5071405;28;20476;-80
2022/08/16 06:42:34;;;;;;;7.20;4.90;;;21.70;99.90;;;;;;5070418;28;20494;-80
2022/08/16 06:45:01;;;;;;;7.23;3.77;;;21.70;99.90;;;;;;5067292;28;20467;-80
2022/08/16 06:47:28;;;;;;;8.97;4.10;;;21.70;99.90;;;;;;5068849;28;20495;-80
2022/08/16 06:49:56;;;;;;;8.33;4.90;;;21.80;99.90;;;;;;5068755;28;20452;-80
2022/08/16 06:52:23;;;;;;;6.97;3.90;;;21.80;99.90;;;;;;5064864;28;20479;-80
2022/08/16 06:54:50;;;;;;;5.93;3.67;;;21.90;99.90;;;;;;5059827;28;20472;-80
2022/08/16 06:57:18;;;;;;;4.87;4.20;;;21.90;99.90;;;;;;5058616;28;20515;-79
2022/08/16 06:59:46;;;;;;;4.70;4.00;;;21.90;99.90;;;;;;5064356;28;20458;-79
2022/08/16 07:02:13;;;;;;;7.30;5.40;;;22.00;99.90;;;;;;5060858;28;20460;-80
2022/08/16 07:04:41;;;;;;;4.00;3.60;;;22.10;99.90;;;;;;5057921;28;20464;-80
2022/08/16 07:07:09;;;;;;;7.00;5.00;;;22.20;99.90;;;;;;5056755;28;20488;-80
2022/08/16 07:09:36;;;;;;;6.63;5.10;;;22.20;99.90;;;;;;5055614;28;20452;-80
2022/08/16 07:12:04;;;;;;;5.27;4.70;;;22.20;99.90;;;;;;5056327;28;20466;-80
2022/08/16 07:14:31;;;;;;;5.07;4.57;;;22.20;99.90;;;;;;5055100;28;20518;-79
2022/08/16 07:16:59;;;;;;;6.63;4.40;;;22.20;99.90;;;;;;5056298;28;20452;-81
2022/08/16 07:19:27;;;;;;;12.87;5.17;;;22.30;99.90;;;;;;5055721;28;21035;-80
2022/08/16 07:21:54;;;;;;;7.17;4.77;;;22.30;99.90;;;;;;5056086;28;20543;-80
2022/08/16 07:24:22;;;;;;;5.73;4.50;;;22.40;99.90;;;;;;5054111;28;20521;-81
2022/08/16 07:26:49;;;;;;;4.50;4.10;;;22.50;99.90;;;;;;5041555;28;20458;-79
2022/08/16 07:29:16;;;;;;;5.03;4.37;;;22.60;99.90;;;;;;5056145;28;20479;-80
2022/08/16 07:31:42;;;;;;;5.20;4.70;;;22.60;99.90;;;;;;5049920;28;20479;-79
2022/08/16 07:34:09;;;;;;;5.90;4.50;;;22.60;99.90;;;;;;5047808;28;20892;-80
2022/08/16 07:36:37;;;;;;;6.43;4.77;;;22.80;99.90;;;;;;5053642;28;20460;-79
2022/08/16 07:39:04;;;;;;;7.80;5.87;;;22.90;99.90;;;;;;5045440;28;20872;-79
2022/08/16 07:41:33;;;;;;;6.10;5.33;;;22.80;99.90;;;;;;5048635;28;20911;-80
2022/08/16 07:44:00;;;;;;;4.73;4.00;;;22.70;99.90;;;;;;5035379;28;20457;-80
2022/08/16 07:46:26;;;;;;;5.90;4.43;;;22.90;99.90;;;;;;5035876;28;20988;-80
2022/08/16 07:48:53;;;;;;;6.30;5.00;;;23.00;99.90;;;;;;5045269;28;20945;-81
2022/08/16 07:51:20;;;;;;;8.17;5.30;;;23.10;99.90;;;;;;5049514;28;20523;-80
2022/08/16 07:53:50;;;;;;;6.90;5.27;;;23.20;99.90;;;;;;5054995;28;20444;-80
2022/08/16 07:56:17;;;;;;;9.43;5.30;;;23.20;99.90;;;;;;5054889;28;20479;-79
2022/08/16 07:58:45;;;;;;;5.20;4.70;;;23.10;99.90;;;;;;5055775;28;20539;-79
2022/08/16 08:01:13;;;;;;;7.70;4.53;;;23.20;99.90;;;;;;5056096;28;20448;-79
2022/08/16 08:03:42;;;;;;;6.87;5.23;;;23.20;99.90;;;;;;5055081;28;20452;-79
2022/08/16 08:06:09;;;;;;;6.23;5.30;;;23.30;99.90;;;;;;5055218;28;20503;-80
2022/08/16 08:08:36;;;;;;;7.90;4.60;;;23.50;99.90;;;;;;5046914;28;20519;-80
2022/08/16 08:11:03;;;;;;;7.33;4.87;;;23.60;99.90;;;;;;5055105;28;20476;-80
2022/08/16 08:13:30;;;;;;;6.90;6.20;;;23.70;99.90;;;;;;5055053;28;20956;-79
2022/08/16 08:15:58;;;;;;;7.90;6.40;;;23.80;99.90;;;;;;5071044;28;20514;-80
2022/08/16 08:18:25;;;;;;;8.70;5.57;;;23.70;99.90;;;;;;5067893;28;20467;-79
2022/08/16 08:20:52;;;;;;;8.80;5.53;;;23.80;99.90;;;;;;5054614;28;20479;-80
2022/08/16 08:23:19;;;;;;;6.37;5.63;;;24.00;99.90;;;;;;5054508;28;20804;-81
2022/08/16 08:25:47;;;;;;;8.73;5.87;;;24.10;99.90;;;;;;5057397;28;20472;-80
2022/08/16 08:28:14;;;;;;;6.97;5.60;;;24.00;99.90;;;;;;5056555;28;20492;-78
2022/08/16 08:30:42;;;;;;;7.07;5.33;;;24.00;99.90;;;;;;5055291;28;20551;-77
2022/08/16 08:33:11;;;;;;;7.13;5.53;;;24.20;99.90;;;;;;5053302;28;20491;-78
2022/08/16 08:35:38;;;;;;;8.60;6.10;;;24.40;99.90;;;;;;5053756;28;20471;-79
2022/08/16 08:38:07;;;;;;;7.33;6.07;;;24.40;99.90;;;;;;5045978;28;20445;-79
2022/08/16 08:40:35;;;;;;;7.53;5.63;;;24.50;99.90;;;;;;5034852;28;20460;-79
2022/08/16 08:43:02;;;;;;;7.73;5.60;;;24.80;99.90;;;;;;5041308;28;20452;-79
2022/08/16 08:45:29;;;;;;;8.37;6.13;;;25.00;99.90;;;;;;5055700;28;20471;-79
2022/08/16 08:47:56;;;;;;;6.00;5.37;;;25.20;99.90;;;;;;5055891;28;20587;-80
2022/08/16 08:50:25;;;;;;;8.33;5.30;;;25.30;99.90;;;;;;5054695;28;20479;-79
2022/08/16 08:52:53;;;;;;;6.67;4.77;;;25.60;99.90;;;;;;5053469;28;20914;-77
2022/08/16 08:55:21;;;;;;;6.60;5.90;;;25.80;99.90;;;;;;5051081;28;20475;-78
2022/08/16 08:57:50;;;;;;;5.87;4.77;;;25.90;99.90;;;;;;5054102;28;20476;-79
2022/08/16 09:00:22;;;;;;;7.50;5.70;;;26.00;99.90;;;;;;5055099;28;20834;-78
2022/08/16 09:02:49;;;;;;;6.60;6.00;;;26.20;99.90;;;;;;5057772;28;20455;-78
2022/08/16 09:05:18;;;;;;;6.63;5.93;;;26.20;99.90;;;;;;5056576;28;20510;-79
2022/08/16 09:07:47;;;;;;;6.50;5.20;;;26.40;99.90;;;;;;5053383;28;20486;-79
2022/08/16 09:10:14;;;;;;;8.07;5.93;;;26.50;99.90;;;;;;5053569;28;20536;-77
2022/08/16 09:12:41;;;;;;;8.00;4.83;;;26.70;99.90;;;;;;5053766;28;20457;-76
2022/08/16 09:15:11;;;;;;;7.13;4.97;;;27.00;99.90;;;;;;5036564;28;20571;-77
2022/08/16 09:17:38;;;;;;;8.07;5.30;;;27.10;99.90;;;;;;5051416;28;20531;-76
2022/08/16 09:20:06;;;;;;;6.57;5.87;;;27.10;99.90;;;;;;5047807;28;20455;-76
2022/08/16 09:22:34;;;;;;;11.63;5.80;;;27.20;99.90;;;;;;5045176;28;20503;-76
2022/08/16 09:25:03;;;;;;;6.60;4.83;;;27.30;99.90;;;;;;5051967;28;20475;-76
2022/08/16 09:27:30;;;;;;;9.30;6.93;;;27.50;99.90;;;;;;5053627;28;20539;-77
2022/08/16 09:29:57;;;;;;;6.70;5.67;;;27.60;99.90;;;;;;5053247;28;20490;-76
2022/08/16 09:32:24;;;;;;;5.50;4.63;;;27.70;99.90;;;;;;5054045;28;20510;-76
2022/08/16 09:34:51;;;;;;;9.77;4.93;;;27.90;99.90;;;;;;5052940;28;20546;-76
2022/08/16 09:37:18;;;;;;;7.23;6.30;;;28.20;99.90;;;;;;5053505;28;20456;-77
2022/08/16 09:39:45;;;;;;;10.23;6.70;;;28.20;99.90;;;;;;5053450;28;20531;-76
2022/08/16 09:42:14;;;;;;;7.37;5.30;;;27.90;99.90;;;;;;5054092;28;20454;-77
2022/08/16 09:44:42;;;;;;;10.23;6.50;;;28.20;99.90;;;;;;5053442;28;20872;-76
2022/08/16 09:47:09;;;;;;;9.90;5.80;;;28.20;99.90;;;;;;5053906;28;20467;-76
2022/08/16 09:49:36;;;;;;;7.47;5.07;;;28.50;99.90;;;;;;5053619;28;20519;-76
2022/08/16 09:52:03;;;;;;;6.97;6.17;;;28.50;99.90;;;;;;5053524;28;20458;-76
2022/08/16 09:54:30;;;;;;;5.60;4.50;;;28.70;99.90;;;;;;5052988;28;21034;-77
2022/08/16 09:56:57;;;;;;;7.40;4.67;;;29.00;99.90;;;;;;5053470;28;20460;-76
2022/08/16 09:59:26;;;;;;;5.97;4.70;;;29.10;99.90;;;;;;5053741;28;20531;-76
2022/08/16 10:01:54;;;;;;;7.70;4.40;;;29.50;99.90;;;;;;5053613;28;21000;-77
2022/08/16 10:04:21;;;;;;;10.83;5.47;;;29.80;99.90;;;;;;5067593;22;20595;-78
2022/08/16 10:06:48;;;;;;;11.67;5.10;;;29.40;99.90;;;;;;5037872;28;20752;-77
2022/08/16 10:09:15;;;;;;;7.13;4.67;;;29.80;99.90;;;;;;5033840;28;20942;-77
2022/08/16 10:14:30;;;;;;;9.30;5.10;;;29.40;99.90;;;;;;5037270;28;21010;-77
2022/08/16 10:16:59;;;;;;;6.07;4.30;;;29.40;99.90;;;;;;5052974;28;20458;-76
2022/08/16 10:19:27;;;;;;;6.30;4.73;;;30.00;99.90;;;;;;5043096;28;20457;-78
2022/08/16 10:21:54;;;;;;;5.60;4.13;;;29.90;99.90;;;;;;5033772;28;20456;-79
2022/08/16 10:24:21;;;;;;;7.13;5.13;;;30.10;99.90;;;;;;5046821;28;20575;-78
2022/08/16 10:26:48;;;;;;;6.60;4.70;;;30.20;99.90;;;;;;5041325;28;20448;-77
2022/08/16 10:29:16;;;;;;;5.27;4.77;;;30.50;99.90;;;;;;5038157;28;20570;-77
2022/08/16 10:31:44;;;;;;;6.37;4.20;;;30.70;99.90;;;;;;5041532;28;20520;-76
2022/08/16 10:34:11;;;;;;;8.03;4.30;;;30.60;99.90;;;;;;5043477;28;20564;-77
2022/08/16 10:36:38;;;;;;;4.80;3.63;;;30.70;99.90;;;;;;5049988;28;20456;-80
2022/08/16 10:39:05;;;;;;;6.30;4.30;;;31.00;99.90;;;;;;5038318;28;20451;-78
2022/08/16 10:41:32;;;;;;;7.17;4.83;;;31.10;99.90;;;;;;5042532;28;20484;-78
2022/08/16 10:43:59;;;;;;;5.73;4.73;;;31.50;99.90;;;;;;5033818;28;20484;-78
2022/08/16 10:46:26;;;;;;;7.50;4.53;;;31.60;99.90;;;;;;5048309;28;20459;-80
2022/08/16 10:48:54;;;;;;;6.13;4.40;;;31.60;99.90;;;;;;5043970;28;20476;-79
2022/08/16 10:51:21;;;;;;;4.73;3.70;;;31.70;99.90;;;;;;5040464;28;20945;-78
2022/08/16 10:53:49;;;;;;;7.47;4.37;;;31.60;99.90;;;;;;5033586;28;20515;-78
2022/08/16 10:56:16;;;;;;;8.03;4.13;;;31.90;99.90;;;;;;5034831;28;20457;-79
2022/08/16 10:58:43;;;;;;;5.90;4.03;;;31.90;99.90;;;;;;5039842;28;20456;-77
2022/08/16 11:01:11;;;;;;;5.40;4.10;;;31.60;99.90;;;;;;5040717;28;20508;-79
2022/08/16 11:03:38;;;;;;;6.10;3.10;;;31.60;99.90;;;;;;5024582;28;20481;-80
2022/08/16 11:06:08;;;;;;;4.60;3.50;;;31.40;99.90;;;;;;5030708;28;20536;-78
2022/08/16 11:08:36;;;;;;;5.40;3.80;;;31.60;99.90;;;;;;5036415;28;20516;-76
2022/08/16 11:11:04;;;;;;;5.03;4.40;;;31.70;99.90;;;;;;5034681;28;20482;-80
2022/08/16 11:13:31;;;;;;;4.67;3.97;;;32.00;99.90;;;;;;5050394;28;20472;-77
2022/08/16 11:15:59;;;;;;;4.40;3.40;;;32.20;99.90;;;;;;5049830;28;20450;-78
2022/08/16 11:18:28;;;;;;;7.40;4.07;;;32.10;99.90;;;;;;5049624;28;20452;-77
2022/08/16 11:20:57;;;;;;;6.23;4.30;;;32.20;99.90;;;;;;5036223;28;20484;-78
2022/08/16 11:23:27;;;;;;;6.30;4.30;;;32.50;99.90;;;;;;5042262;28;20820;-79
2022/08/16 11:25:55;;;;;;;6.13;4.23;;;32.80;99.90;;;;;;5046940;28;20453;-80
2022/08/16 11:28:22;;;;;;;5.37;3.70;;;32.80;99.90;;;;;;5041931;28;21050;-79
2022/08/16 11:30:49;;;;;;;6.20;4.73;;;32.70;99.90;;;;;;5040944;28;20540;-78
2022/08/16 11:33:16;;;;;;;4.47;3.90;;;32.70;99.90;;;;;;5038243;28;20519;-77
2022/08/16 11:35:43;;;;;;;5.87;3.33;;;32.90;99.90;;;;;;5036671;28;20448;-77
2022/08/16 11:38:16;;;;;;;4.80;3.80;;;32.60;99.90;;;;;;5035832;28;20563;-79
2022/08/16 11:40:49;;;;;;;4.87;3.60;;;32.70;99.90;;;;;;5033333;28;20862;-80
2022/08/16 11:43:17;;;;;;;5.33;4.10;;;32.90;99.90;;;;;;5031714;28;20488;-79
2022/08/16 11:45:46;;;;;;;7.73;3.80;;;33.10;99.90;;;;;;5033439;28;20924;-80
2022/08/16 11:48:13;;;;;;;6.87;3.80;;;33.40;99.90;;;;;;5039913;28;20479;-80
2022/08/16 11:50:41;;;;;;;5.30;3.37;;;33.50;99.90;;;;;;5043516;28;20461;-80
2022/08/16 11:53:08;;;;;;;5.83;4.07;;;33.50;99.90;;;;;;5036202;28;20595;-78
2022/08/16 11:55:36;;;;;;;4.10;3.50;;;33.40;99.90;;;;;;5036936;28;20539;-80
2022/08/16 11:58:06;;;;;;;5.10;3.77;;;33.70;99.90;;;;;;5044767;28;20475;-78
2022/08/16 12:00:35;;;;;;;5.93;3.93;;;33.50;99.90;;;;;;5044713;28;20488;-78
2022/08/16 12:03:02;;;;;;;5.20;4.27;;;33.40;99.90;;;;;;5057179;28;20570;-79
2022/08/16 12:05:29;;;;;;;6.00;4.20;;;33.60;99.90;;;;;;5057616;28;20858;-76
2022/08/16 12:07:57;;;;;;;6.27;4.40;;;33.40;99.90;;;;;;5057622;28;20967;-79
2022/08/16 12:10:26;;;;;;;6.00;4.03;;;33.80;99.90;;;;;;5046871;28;20480;-80
2022/08/16 12:12:53;;;;;;;5.27;4.00;;;34.00;99.90;;;;;;5030873;28;20539;-79
2022/08/16 12:15:23;;;;;;;5.67;3.80;;;34.00;99.90;;;;;;5031478;28;20459;-80
2022/08/16 12:17:50;;;;;;;6.00;4.30;;;33.90;99.90;;;;;;5030123;28;20459;-79
2022/08/16 12:20:21;;;;;;;6.30;3.97;;;32.80;99.90;;;;;;5037221;28;20532;-79
2022/08/16 12:22:49;;;;;;;4.60;3.73;;;33.30;99.90;;;;;;5049540;28;20475;-77
2022/08/16 12:25:18;;;;;;;5.47;3.73;;;33.30;99.90;;;;;;5033948;28;20901;-79
2022/08/16 12:27:47;;;;;;;4.97;3.67;;;32.90;99.90;;;;;;5043403;28;20540;-79
2022/08/16 12:30:18;;;;;;;6.10;4.03;;;33.50;99.90;;;;;;5031060;28;20476;-78
2022/08/16 12:32:46;;;;;;;6.10;3.70;;;33.60;99.90;;;;;;5030873;28;20544;-79
2022/08/16 12:35:16;;;;;;;8.80;3.97;;;33.40;99.90;;;;;;5033353;28;20820;-77
2022/08/16 12:37:44;;;;;;;6.13;3.73;;;33.20;99.90;;;;;;5042751;28;20483;-81
2022/08/16 12:40:16;;;;;;;5.83;4.10;;;33.00;99.90;;;;;;5054989;28;20527;-79
2022/08/16 12:42:43;;;;;;;5.70;4.20;;;33.30;99.90;;;;;;5038466;28;21023;-79
2022/08/16 12:45:13;;;;;;;4.97;3.80;;;33.20;99.90;;;;;;5043565;28;20502;-79
2022/08/16 12:50:26;;;;;;;8.10;3.60;;;33.50;99.90;;;;;;5056469;28;20474;-80
2022/08/16 12:52:53;;;;;;;9.30;3.97;;;33.50;99.90;;;;;;5035035;28;20544;-79